createdAt,value
2022-08-29T00:01:05.496Z,19.29
2022-08-29T00:03:38.915Z,19.29
2022-08-29T00:06:14.337Z,19.27
2022-08-29T00:08:46.512Z,19.22
2022-08-29T00:11:18.920Z,19.15
2022-08-29T00:13:51.589Z,19.12
2022-08-29T00:16:23.858Z,19.13
2022-08-29T00:18:56.034Z,19.11
2022-08-29T00:21:28.394Z,19.10
2022-08-29T00:24:00.882Z,19.10
2022-08-29T00:26:33.326Z,19.12
2022-08-29T00:29:05.511Z,19.12
2022-08-29T00:31:37.766Z,19.11
2022-08-29T00:34:10.385Z,19.11
2022-08-29T00:36:42.602Z,19.12
2022-08-29T00:39:23.735Z,19.12
2022-08-29T00:41:56.273Z,19.05
2022-08-29T00:44:29.306Z,19.06
2022-08-29T00:47:11.542Z,19.08
2022-08-29T00:49:47.231Z,19.09
2022-08-29T00:52:24.181Z,19.12
2022-08-29T00:54:57.648Z,19.15
2022-08-29T00:57:33.473Z,19.18
2022-08-29T01:00:08.335Z,19.18
2022-08-29T01:02:42.087Z,19.16
2022-08-29T01:05:17.931Z,19.12
2022-08-29T01:07:52.010Z,19.09
2022-08-29T01:10:42.709Z,19.09
2022-08-29T01:13:15.964Z,19.10
2022-08-29T01:15:49.406Z,19.10
2022-08-29T01:18:23.049Z,19.04
2022-08-29T01:21:05.722Z,19.02
2022-08-29T01:23:43.948Z,19.02
2022-08-29T01:26:19.026Z,18.99
2022-08-29T01:28:54.265Z,18.97
2022-08-29T01:31:37.775Z,18.91
2022-08-29T01:34:22.462Z,18.85
2022-08-29T01:36:57.918Z,18.84
2022-08-29T01:39:32.921Z,18.82
2022-08-29T01:42:10.616Z,18.80
2022-08-29T01:44:48.722Z,18.83
2022-08-29T01:47:23.841Z,18.86
2022-08-29T01:49:57.110Z,18.87
2022-08-29T01:52:32.186Z,18.84
2022-08-29T01:55:04.454Z,18.82
2022-08-29T01:57:38.138Z,18.82
2022-08-29T02:00:13.126Z,18.84
2022-08-29T02:02:45.304Z,18.86
2022-08-29T02:05:23.454Z,18.83
2022-08-29T02:07:55.647Z,18.79
2022-08-29T02:10:28.667Z,18.80
2022-08-29T02:13:02.916Z,18.78
2022-08-29T02:15:35.819Z,18.75
2022-08-29T02:18:08.443Z,18.72
2022-08-29T02:20:40.920Z,18.74
2022-08-29T02:23:29.762Z,18.76
2022-08-29T02:26:01.941Z,18.78
2022-08-29T02:28:33.946Z,18.74
2022-08-29T02:31:07.776Z,18.71
2022-08-29T02:33:40.983Z,18.68
2022-08-29T02:36:13.515Z,18.68
2022-08-29T02:38:46.947Z,18.68
2022-08-29T02:41:21.809Z,18.65
2022-08-29T02:43:54.058Z,18.58
2022-08-29T02:46:26.739Z,18.53
2022-08-29T02:49:01.058Z,18.54
2022-08-29T02:51:36.004Z,18.56
2022-08-29T02:54:08.516Z,18.57
2022-08-29T02:56:41.162Z,18.55
2022-08-29T02:59:14.433Z,18.54
2022-08-29T03:01:46.653Z,18.55
2022-08-29T03:04:18.901Z,18.54
2022-08-29T03:06:52.462Z,18.52
2022-08-29T03:09:24.812Z,18.53
2022-08-29T03:11:57.025Z,18.53
2022-08-29T03:14:29.190Z,18.54
2022-08-29T03:17:01.924Z,18.50
2022-08-29T03:19:37.345Z,18.52
2022-08-29T03:22:09.774Z,18.51
2022-08-29T03:24:41.932Z,18.52
2022-08-29T03:27:14.452Z,18.51
2022-08-29T03:29:46.630Z,18.49
2022-08-29T03:32:18.830Z,18.45
2022-08-29T03:34:51.004Z,18.39
2022-08-29T03:37:24.468Z,18.38
2022-08-29T03:39:58.443Z,18.37
2022-08-29T03:42:31.088Z,18.36
2022-08-29T03:45:05.395Z,18.34
2022-08-29T03:47:37.864Z,18.32
2022-08-29T03:50:11.941Z,18.30
2022-08-29T03:52:47.121Z,18.31
2022-08-29T03:55:20.625Z,18.32
2022-08-29T03:57:52.781Z,18.33
2022-08-29T04:00:25.636Z,18.31
2022-08-29T04:02:59.067Z,18.25
2022-08-29T04:05:31.285Z,18.24
2022-08-29T04:08:03.700Z,18.23
2022-08-29T04:10:38.780Z,18.20
2022-08-29T04:13:11.562Z,18.17
2022-08-29T04:15:44.893Z,18.19
2022-08-29T04:18:21.412Z,18.19
2022-08-29T04:21:04.318Z,18.18
2022-08-29T04:23:39.067Z,18.13
2022-08-29T04:29:13.861Z,18.07
2022-08-29T04:31:46.048Z,18.07
2022-08-29T04:34:18.337Z,18.08
2022-08-29T04:36:50.776Z,18.09
2022-08-29T04:39:24.735Z,18.12
2022-08-29T04:41:56.942Z,18.14
2022-08-29T04:44:29.468Z,18.10
2022-08-29T04:47:01.730Z,18.07
2022-08-29T04:49:34.745Z,18.02
2022-08-29T04:52:07.672Z,17.95
2022-08-29T04:54:39.867Z,17.89
2022-08-29T04:57:12.029Z,17.89
2022-08-29T04:59:44.725Z,17.92
2022-08-29T05:02:17.032Z,17.90
2022-08-29T05:04:52.734Z,17.88
2022-08-29T05:07:26.805Z,17.89
2022-08-29T05:10:02.037Z,17.95
2022-08-29T05:12:35.315Z,17.99
2022-08-29T05:15:09.339Z,18.01
2022-08-29T05:17:41.795Z,18.04
2022-08-29T05:20:14.796Z,18.07
2022-08-29T05:22:47.288Z,18.12
2022-08-29T05:25:19.675Z,18.15
2022-08-29T05:27:53.127Z,18.19
2022-08-29T05:30:34.790Z,18.19
2022-08-29T05:33:08.787Z,18.12
2022-08-29T05:35:41.679Z,18.10
2022-08-29T05:38:15.965Z,18.14
2022-08-29T05:40:48.394Z,18.14
2022-08-29T05:43:20.688Z,18.18
2022-08-29T05:46:02.284Z,18.22
2022-08-29T05:48:35.177Z,18.25
2022-08-29T05:51:07.518Z,18.29
2022-08-29T05:53:40.226Z,18.30
2022-08-29T05:56:12.984Z,18.29
2022-08-29T05:58:45.166Z,18.33
2022-08-29T06:01:26.627Z,18.35
2022-08-29T06:04:02.015Z,18.40
2022-08-29T06:06:35.189Z,18.44
2022-08-29T06:09:08.508Z,18.45
2022-08-29T06:11:41.865Z,18.44
2022-08-29T06:14:16.849Z,18.47
2022-08-29T06:16:51.973Z,18.49
2022-08-29T06:19:24.491Z,18.52
2022-08-29T06:21:58.798Z,18.56
2022-08-29T06:24:31.682Z,18.59
2022-08-29T06:27:05.745Z,18.63
2022-08-29T06:29:43.651Z,18.67
2022-08-29T06:32:17.315Z,18.71
2022-08-29T06:34:49.463Z,18.75
2022-08-29T06:37:21.648Z,18.82
2022-08-29T06:39:53.965Z,18.99
2022-08-29T06:42:28.745Z,19.32
2022-08-29T06:45:03.128Z,19.63
2022-08-29T06:47:35.626Z,19.89
2022-08-29T06:50:09.891Z,19.94
2022-08-29T06:52:42.167Z,19.96
2022-08-29T06:55:15.601Z,20.01
2022-08-29T06:57:47.763Z,20.17
2022-08-29T07:00:22.919Z,20.30
2022-08-29T07:02:55.635Z,20.44
2022-08-29T07:05:27.815Z,20.62
2022-08-29T07:08:00.225Z,20.77
2022-08-29T07:10:32.484Z,20.84
2022-08-29T07:13:04.726Z,20.86
2022-08-29T07:15:37.971Z,20.88
2022-08-29T07:18:12.053Z,20.95
2022-08-29T07:20:44.339Z,21.14
2022-08-29T07:23:17.079Z,21.31
2022-08-29T07:25:49.507Z,21.41
2022-08-29T07:28:24.891Z,21.50
2022-08-29T07:30:57.112Z,21.55
2022-08-29T07:33:29.439Z,21.39
2022-08-29T07:36:02.339Z,21.26
2022-08-29T07:38:35.644Z,21.32
2022-08-29T07:41:14.394Z,21.57
2022-08-29T07:43:46.603Z,21.63
2022-08-29T07:46:20.811Z,21.69
2022-08-29T07:48:53.819Z,21.90
2022-08-29T07:51:27.180Z,22.05
2022-08-29T07:54:00.165Z,22.01
2022-08-29T07:56:40.195Z,21.82
2022-08-29T07:59:13.470Z,21.68
2022-08-29T08:01:46.327Z,21.81
2022-08-29T08:04:19.163Z,21.93
2022-08-29T08:06:52.230Z,22.04
2022-08-29T08:09:25.099Z,22.25
2022-08-29T08:11:57.643Z,22.41
2022-08-29T08:14:34.586Z,22.45
2022-08-29T08:17:07.677Z,22.51
2022-08-29T08:19:39.989Z,22.57
2022-08-29T08:22:12.621Z,22.77
2022-08-29T08:24:45.085Z,22.89
2022-08-29T08:27:17.638Z,22.98
2022-08-29T08:29:49.989Z,22.92
2022-08-29T08:32:22.970Z,22.78
2022-08-29T08:35:00.003Z,22.78
2022-08-29T08:37:32.476Z,22.91
2022-08-29T08:40:09.339Z,22.97
2022-08-29T08:42:43.927Z,22.94
2022-08-29T08:51:35.001Z,22.72
2022-08-29T08:54:25.676Z,22.91
2022-08-29T09:11:27.321Z,23.32
2022-08-29T09:21:56.998Z,23.44
2022-08-29T09:25:03.994Z,23.47
2022-08-29T09:28:45.996Z,23.61
2022-08-29T09:50:38.182Z,24.23
2022-08-29T09:53:25.130Z,24.34
2022-08-29T10:27:10.461Z,23.95
2022-08-29T10:52:27.760Z,23.86
2022-08-29T10:59:24.057Z,23.95
2022-08-29T11:20:56.302Z,23.59
2022-08-29T11:32:58.364Z,23.79
2022-08-29T11:44:53.364Z,23.73
2022-08-29T11:51:45.039Z,23.84
2022-08-29T11:59:04.305Z,23.84
2022-08-29T12:07:05.630Z,23.60
2022-08-29T12:14:43.619Z,23.68
2022-08-29T12:18:19.175Z,23.72
2022-08-29T12:20:54.037Z,23.76
2022-08-29T12:51:54.255Z,23.74
2022-08-29T12:54:47.121Z,23.73
2022-08-29T12:57:53.742Z,23.85
2022-08-29T13:05:40.623Z,23.80
2022-08-29T13:13:26.756Z,23.90
2022-08-29T13:25:31.689Z,23.64
2022-08-29T13:33:18.185Z,23.66
2022-08-29T13:42:42.955Z,23.85
2022-08-29T13:50:28.178Z,24.11
2022-08-29T13:53:07.051Z,24.17
2022-08-29T13:55:41.773Z,24.09
2022-08-29T13:59:05.954Z,24.08
2022-08-29T14:10:26.437Z,24.07
2022-08-29T14:12:59.206Z,24.14
2022-08-29T14:15:38.525Z,24.17
2022-08-29T14:23:00.338Z,24.15
2022-08-29T14:25:39.075Z,24.11
2022-08-29T14:32:33.035Z,23.99
2022-08-29T14:48:54.419Z,23.96
2022-08-29T14:51:27.437Z,23.95
2022-08-29T14:54:07.665Z,23.90
2022-08-29T15:00:39.031Z,23.82
2022-08-29T15:26:16.392Z,23.15
2022-08-29T15:28:51.860Z,23.07
2022-08-29T15:32:20.567Z,22.99
2022-08-29T15:34:55.040Z,22.94
2022-08-29T15:37:34.076Z,22.94
2022-08-29T15:40:13.019Z,22.89
2022-08-29T15:43:35.671Z,22.80
2022-08-29T15:46:18.540Z,22.76
2022-08-29T15:48:51.047Z,22.68
2022-08-29T15:51:25.570Z,22.67
2022-08-29T15:55:25.913Z,22.65
2022-08-29T15:58:04.463Z,22.61
2022-08-29T16:04:33.971Z,22.48
2022-08-29T16:11:45.159Z,22.32
2022-08-29T16:15:26.201Z,22.24
2022-08-29T16:17:58.983Z,22.19
2022-08-29T16:21:43.666Z,22.14
2022-08-29T16:24:48.306Z,22.11
2022-08-29T16:27:27.193Z,22.09
2022-08-29T16:29:59.470Z,22.09
2022-08-29T16:32:38.583Z,22.11
2022-08-29T16:35:12.837Z,22.15
2022-08-29T16:38:09.225Z,22.14
2022-08-29T16:40:41.567Z,22.12
2022-08-29T16:43:20.878Z,22.09
2022-08-29T16:45:53.479Z,22.05
2022-08-29T16:53:13.582Z,21.88
2022-08-29T16:55:45.736Z,21.81
2022-08-29T17:02:27.018Z,21.64
2022-08-29T17:05:05.838Z,21.53
2022-08-29T17:07:36.988Z,21.44
2022-08-29T17:19:27.296Z,21.06
2022-08-29T17:25:46.670Z,20.77
2022-08-29T17:28:20.244Z,20.66
2022-08-29T17:30:53.610Z,20.54
2022-08-29T17:33:27.207Z,20.42
2022-08-29T17:35:59.894Z,20.34
2022-08-29T17:38:35.294Z,20.25
2022-08-29T17:41:14.812Z,20.16
2022-08-29T17:44:10.531Z,20.08
2022-08-29T17:46:56.534Z,19.97
2022-08-29T17:49:29.500Z,19.86
2022-08-29T17:52:02.379Z,19.77
2022-08-29T17:54:34.730Z,19.66
2022-08-29T17:57:07.384Z,19.53
2022-08-29T17:59:40.003Z,19.41
2022-08-29T18:02:12.343Z,19.32
2022-08-29T18:04:44.778Z,19.23
2022-08-29T18:07:18.194Z,19.16
2022-08-29T18:09:50.414Z,19.09
2022-08-29T18:12:22.718Z,19.00
2022-08-29T18:14:55.096Z,18.91
2022-08-29T18:17:27.774Z,18.83
2022-08-29T18:20:04.719Z,18.75
2022-08-29T18:22:37.260Z,18.68
2022-08-29T18:25:11.622Z,18.60
2022-08-29T18:27:47.916Z,18.56
2022-08-29T18:30:27.685Z,18.49
2022-08-29T18:32:59.930Z,18.44
2022-08-29T18:35:32.429Z,18.40
2022-08-29T18:38:07.793Z,18.35
2022-08-29T18:40:40.577Z,18.29
2022-08-29T18:43:13.457Z,18.25
2022-08-29T18:45:46.248Z,18.19
2022-08-29T18:48:18.770Z,18.15
2022-08-29T18:50:51.080Z,18.08
2022-08-29T18:53:25.013Z,18.01
2022-08-29T18:55:57.822Z,17.96
2022-08-29T18:58:33.214Z,17.91
2022-08-29T19:01:14.919Z,17.85
2022-08-29T19:03:50.915Z,17.84
2022-08-29T19:06:26.066Z,17.79
2022-08-29T19:09:00.190Z,17.74
2022-08-29T19:11:32.737Z,17.69
2022-08-29T19:14:06.224Z,17.63
2022-08-29T19:16:39.739Z,17.59
2022-08-29T19:19:13.511Z,17.54
2022-08-29T19:22:14.831Z,17.53
2022-08-29T19:24:56.081Z,17.46
2022-08-29T19:27:43.805Z,17.42
2022-08-29T19:30:57.639Z,17.38
2022-08-29T19:33:38.426Z,17.32
2022-08-29T19:36:12.393Z,17.28
2022-08-29T19:38:45.279Z,17.22
2022-08-29T19:41:17.594Z,17.18
2022-08-29T19:43:49.776Z,17.14
2022-08-29T19:46:24.426Z,17.09
2022-08-29T19:49:00.086Z,17.04
2022-08-29T19:51:33.737Z,17.01
2022-08-29T19:54:08.915Z,17.01
2022-08-29T19:56:46.867Z,16.98
2022-08-29T19:59:19.410Z,16.93
2022-08-29T20:01:51.899Z,16.90
2022-08-29T20:04:24.475Z,16.88
2022-08-29T20:07:00.197Z,16.86
2022-08-29T20:09:33.191Z,16.81
2022-08-29T20:12:09.983Z,16.76
2022-08-29T20:14:42.692Z,16.73
2022-08-29T20:17:14.993Z,16.73
2022-08-29T20:19:47.664Z,16.72
2022-08-29T20:22:20.530Z,16.71
2022-08-29T20:24:52.943Z,16.69
2022-08-29T20:27:25.797Z,16.67
2022-08-29T20:30:00.645Z,16.63
2022-08-29T20:32:35.554Z,16.57
2022-08-29T20:35:10.404Z,16.53
2022-08-29T20:37:43.318Z,16.48
2022-08-29T20:40:16.116Z,16.43
2022-08-29T20:42:48.356Z,16.40
2022-08-29T20:45:21.241Z,16.37
2022-08-29T20:47:53.774Z,16.35
2022-08-29T20:50:26.701Z,16.32
2022-08-29T20:52:59.065Z,16.27
2022-08-29T20:55:31.774Z,16.23
2022-08-29T20:58:05.423Z,16.20
2022-08-29T21:00:38.356Z,16.16
2022-08-29T21:03:28.471Z,16.13
2022-08-29T21:06:00.486Z,16.11
2022-08-29T21:08:33.824Z,16.10
2022-08-29T21:11:06.424Z,16.07
2022-08-29T21:13:43.306Z,16.04
2022-08-29T21:16:15.799Z,16.02
2022-08-29T21:18:47.979Z,15.99
2022-08-29T21:21:24.206Z,15.93
2022-08-29T21:23:56.916Z,15.92
2022-08-29T21:26:29.216Z,15.90
2022-08-29T21:29:01.745Z,15.89
2022-08-29T21:31:34.315Z,15.86
2022-08-29T21:34:10.449Z,15.84
2022-08-29T21:36:43.921Z,15.84
2022-08-29T21:39:27.833Z,15.82
2022-08-29T21:42:02.938Z,15.78
2022-08-29T21:44:35.687Z,15.77
2022-08-29T21:47:08.897Z,15.75
2022-08-29T21:49:42.017Z,15.73
2022-08-29T21:52:14.300Z,15.68
2022-08-29T21:54:50.065Z,15.63
2022-08-29T21:57:44.051Z,15.57
2022-08-29T22:00:17.924Z,15.53
2022-08-29T22:02:50.737Z,15.49
2022-08-29T22:05:23.940Z,15.46
2022-08-29T22:07:56.818Z,15.43
2022-08-29T22:10:33.714Z,15.43
2022-08-29T22:13:08.407Z,15.41
2022-08-29T22:15:58.363Z,15.38
2022-08-29T22:18:30.729Z,15.34
2022-08-29T22:21:05.083Z,15.32
2022-08-29T22:23:37.336Z,15.31
2022-08-29T22:26:09.751Z,15.29
2022-08-29T22:28:45.217Z,15.29
2022-08-29T22:31:19.772Z,15.29
2022-08-29T22:33:52.140Z,15.28
2022-08-29T22:36:24.824Z,15.23
2022-08-29T22:38:57.722Z,15.20
2022-08-29T22:41:30.480Z,15.18
2022-08-29T22:44:42.371Z,15.16
2022-08-29T22:46:55.962Z,15.15
2022-08-29T22:49:33.398Z,15.15
2022-08-29T22:52:06.804Z,15.15
2022-08-29T22:54:43.725Z,15.12
2022-08-29T22:57:17.859Z,15.11
2022-08-29T22:59:50.656Z,15.10
2022-08-29T23:02:23.973Z,15.08
2022-08-29T23:04:56.355Z,15.04
2022-08-29T23:07:28.692Z,15.04
2022-08-29T23:10:01.027Z,15.02
2022-08-29T23:12:35.209Z,15.03
2022-08-29T23:15:09.865Z,15.04
2022-08-29T23:17:42.509Z,15.06
2022-08-29T23:20:17.067Z,15.06
2022-08-29T23:22:51.426Z,15.07
2022-08-29T23:25:23.938Z,15.07
2022-08-29T23:27:56.205Z,15.06
2022-08-29T23:30:28.728Z,15.06
2022-08-29T23:33:00.901Z,15.03
2022-08-29T23:35:33.237Z,15.02
2022-08-29T23:38:07.700Z,15.02
2022-08-29T23:40:40.584Z,15.01
2022-08-29T23:43:13.012Z,15.00
2022-08-29T23:45:46.205Z,14.98
2022-08-29T23:48:23.069Z,14.98
2022-08-29T23:50:58.875Z,14.96
2022-08-29T23:53:31.511Z,14.93
2022-08-29T23:56:08.488Z,14.92
2022-08-29T23:58:41.148Z,14.90
